Time;durP1;ratioP1;P1;durP2;ratioP2;P2;SDS_P1;SDS_P2;PMS_P1;PMS_P2;Temp;Humidity;BMP_temperature;BMP_pressure;BME280_temperature;BME280_humidity;BME280_pressure;Samples;Min_cycle;Max_cycle;Signal;HPM_P1;HPM_P2
2021/07/05 00:02:14;;;;;;;;;;;17.90;99.90;;;;;;5070879;28;19909;-55
2021/07/05 00:04:40;;;;;;;;;;;17.80;99.90;;;;;;5067318;28;19916;-53
2021/07/05 00:07:05;;;;;;;;;;;17.80;99.90;;;;;;5052003;28;19908;-53
2021/07/05 00:09:31;;;;;;;;;;;17.80;99.90;;;;;;5066545;28;19908;-56
2021/07/05 00:11:57;;;;;;;;;;;17.80;99.90;;;;;;5068562;28;19908;-58
2021/07/05 00:14:23;;;;;;;;;;;17.70;99.90;;;;;;5072368;28;19912;-54
2021/07/05 00:16:48;;;;;;;;;;;17.70;99.90;;;;;;5067163;28;19916;-53
2021/07/05 00:19:14;;;;;;;;;;;17.70;99.90;;;;;;5070381;28;19915;-55
2021/07/05 00:21:39;;;;;;;;;;;17.60;99.90;;;;;;5067268;28;19951;-54
2021/07/05 00:24:05;;;;;;;;;;;17.60;99.90;;;;;;5051586;28;19909;-56
2021/07/05 00:26:30;;;;;;;;;;;17.60;99.90;;;;;;5053933;28;19915;-55
2021/07/05 00:28:56;;;;;;;;;;;17.50;99.90;;;;;;5067726;28;19999;-57
2021/07/05 00:31:21;;;;;;;;;;;17.50;99.90;;;;;;5071935;28;19953;-55
2021/07/05 00:33:47;;;;;;;;;;;17.50;99.90;;;;;;5065600;28;20356;-55
2021/07/05 00:36:12;;;;;;;;;;;17.40;99.90;;;;;;5071178;28;19913;-54
2021/07/05 00:38:38;;;;;;;;;;;17.40;99.90;;;;;;5067094;28;19908;-53
2021/07/05 00:41:03;;;;;;;;;;;17.40;99.90;;;;;;5069263;28;20401;-51
2021/07/05 00:43:29;;;;;;;;;;;17.30;99.90;;;;;;5071723;28;19958;-55
2021/07/05 00:45:55;;;;;;;;;;;17.30;99.90;;;;;;5067440;28;19995;-54
2021/07/05 00:48:20;;;;;;;;;;;17.30;99.90;;;;;;5071491;28;19990;-53
2021/07/05 00:50:46;;;;;;;;;;;17.30;99.90;;;;;;5067010;28;20404;-54
2021/07/05 00:53:12;;;;;;;;;;;17.20;99.90;;;;;;5062691;28;19909;-52
2021/07/05 00:55:37;;;;;;;;;;;17.20;99.90;;;;;;5053147;28;20363;-52
2021/07/05 00:58:03;;;;;;;;;;;17.20;99.90;;;;;;5068807;28;20054;-56
2021/07/05 01:00:28;;;;;;;;;;;17.30;99.90;;;;;;5065195;28;19923;-55
2021/07/05 01:02:54;;;;;;;;;;;17.30;99.90;;;;;;5068450;28;20492;-55
2021/07/05 01:05:21;;;;;;;;;;;17.30;99.90;;;;;;5063661;28;20016;-53
2021/07/05 01:07:47;;;;;;;;;;;17.30;99.90;;;;;;5071659;28;19928;-52
2021/07/05 01:10:13;;;;;;;;;;;17.20;99.90;;;;;;5063169;28;19909;-56
2021/07/05 01:12:39;;;;;;;;;;;17.20;99.90;;;;;;5065628;28;19958;-54
2021/07/05 01:15:13;;;;;;;;;;;17.20;99.90;;;;;;5050886;28;19912;-56
2021/07/05 01:17:39;;;;;;;;;;;17.20;99.90;;;;;;5068555;28;19916;-55
2021/07/05 01:20:06;;;;;;;;;;;17.20;99.90;;;;;;5069016;28;20431;-56
2021/07/05 01:22:31;;;;;;;;;;;17.20;99.90;;;;;;5065633;28;19912;-53
2021/07/05 01:24:57;;;;;;;;;;;17.20;99.90;;;;;;5070650;28;19915;-51
2021/07/05 01:27:23;;;;;;;;;;;17.20;99.90;;;;;;5067556;28;19908;-51
2021/07/05 01:29:49;;;;;;;;;;;17.20;99.90;;;;;;5052011;28;20456;-53
2021/07/05 01:32:14;;;;;;;;;;;17.20;99.90;;;;;;5049585;28;20441;-52
2021/07/05 01:34:41;;;;;;;;;;;17.30;99.90;;;;;;5067766;28;19916;-52
2021/07/05 01:37:07;;;;;;;;;;;17.20;99.90;;;;;;5050407;28;20389;-53
2021/07/05 01:39:33;;;;;;;;;;;17.30;99.90;;;;;;5065743;28;19950;-51
2021/07/05 01:41:59;;;;;;;;;;;17.30;99.90;;;;;;5070676;28;19959;-52
2021/07/05 01:44:24;;;;;;;;;;;17.30;99.90;;;;;;5066757;28;20011;-52
2021/07/05 01:46:50;;;;;;;;;;;17.30;99.90;;;;;;5069544;28;20374;-54
2021/07/05 01:49:15;;;;;;;;;;;17.30;99.90;;;;;;5066554;28;20446;-56
2021/07/05 01:51:41;;;;;;;;;;;17.30;99.90;;;;;;5045851;28;19932;-52
2021/07/05 01:54:07;;;;;;;;;;;17.30;99.90;;;;;;5049023;28;19908;-51
2021/07/05 01:56:32;;;;;;;;;;;17.20;99.90;;;;;;5051238;28;20375;-54
2021/07/05 01:58:58;;;;;;;;;;;17.30;99.90;;;;;;5066091;28;19915;-56
2021/07/05 02:01:24;;;;;;;;;;;17.20;99.90;;;;;;5068869;28;20329;-54
2021/07/05 02:03:50;;;;;;;;;;;17.20;99.90;;;;;;5065129;28;20001;-51
2021/07/05 02:06:15;;;;;;;;;;;17.20;99.90;;;;;;5043910;28;19957;-52
2021/07/05 02:08:41;;;;;;;;;;;17.20;99.90;;;;;;5064576;28;20228;-52
2021/07/05 02:11:06;;;;;;;;;;;17.20;99.90;;;;;;5067060;28;20041;-57
2021/07/05 02:13:34;;;;;;;;;;;17.20;99.90;;;;;;5069258;28;19908;-51
2021/07/05 02:16:00;;;;;;;;;;;17.20;99.90;;;;;;5047676;28;20397;-52
2021/07/05 02:18:26;;;;;;;;;;;17.20;99.90;;;;;;5068542;28;19912;-53
2021/07/05 02:20:53;;;;;;;;;;;17.20;99.90;;;;;;5064848;28;19912;-51
2021/07/05 02:23:19;;;;;;;;;;;17.20;99.90;;;;;;5049675;28;19916;-55
2021/07/05 02:25:46;;;;;;;;;;;17.20;99.90;;;;;;5051760;28;19916;-56
2021/07/05 02:28:20;;;;;;;;;;;17.20;99.90;;;;;;5048864;28;19912;-52
2021/07/05 02:30:47;;;;;;;;;;;17.20;99.90;;;;;;5050944;28;19999;-54
2021/07/05 02:33:14;;;;;;;;;;;17.20;99.90;;;;;;5065890;28;20294;-56
2021/07/05 02:35:39;;;;;;;;;;;17.20;99.90;;;;;;5049792;28;20314;-56
2021/07/05 02:38:08;;;;;;;;;;;17.30;99.90;;;;;;5047004;28;19912;-50
2021/07/05 02:40:34;;;;;;;;;;;17.30;99.90;;;;;;5069553;28;19912;-56
2021/07/05 02:43:00;;;;;;;;;;;17.40;99.90;;;;;;5073863;28;19959;-54
2021/07/05 02:45:27;;;;;;;;;;;17.40;99.90;;;;;;5064926;28;19917;-54
2021/07/05 02:47:57;;;;;;;;;;;17.40;99.90;;;;;;5049532;28;19999;-57
2021/07/05 02:50:23;;;;;;;;;;;17.40;99.90;;;;;;5047956;28;19948;-55
2021/07/05 02:52:50;;;;;;;;;;;17.40;99.90;;;;;;5072422;28;19913;-57
2021/07/05 02:55:15;;;;;;;;;;;17.40;99.90;;;;;;5065048;28;19931;-56
2021/07/05 02:57:43;;;;;;;;;;;17.40;99.90;;;;;;5070161;28;20338;-53
2021/07/05 03:00:15;;;;;;;;;;;17.40;99.90;;;;;;5054121;28;19912;-58
2021/07/05 03:02:41;;;;;;;;;;;17.40;99.90;;;;;;5047625;28;19909;-56
2021/07/05 03:05:09;;;;;;;;;;;17.40;99.90;;;;;;5070715;28;19908;-55
2021/07/05 03:07:35;;;;;;;;;;;17.50;99.90;;;;;;5049964;28;20447;-56
2021/07/05 03:10:01;;;;;;;;;;;17.50;99.90;;;;;;5069831;28;19913;-54
2021/07/05 03:12:27;;;;;;;;;;;17.50;99.90;;;;;;5073462;28;19908;-55
2021/07/05 03:14:55;;;;;;;;;;;17.50;99.90;;;;;;5068534;28;20005;-55
2021/07/05 03:17:21;;;;;;;;;;;17.50;99.90;;;;;;5072470;28;19919;-58
2021/07/05 03:19:46;;;;;;;;;;;17.50;99.90;;;;;;5047527;28;19909;-57
2021/07/05 03:22:13;;;;;;;;;;;17.50;99.90;;;;;;5069930;28;20842;-57
2021/07/05 03:24:39;;;;;;;;;;;17.50;99.90;;;;;;5072939;28;19917;-58
2021/07/05 03:27:05;;;;;;;;;;;17.50;99.90;;;;;;5067935;28;19916;-58
2021/07/05 03:29:30;;;;;;;;;;;17.50;99.90;;;;;;5073235;28;20007;-57
2021/07/05 03:31:56;;;;;;;;;;;17.50;99.90;;;;;;5049711;28;19915;-57
2021/07/05 03:34:21;;;;;;;;;;;17.60;99.90;;;;;;5071755;28;19962;-57
2021/07/05 03:36:47;;;;;;;;;;;17.50;99.90;;;;;;5067403;28;19912;-57
2021/07/05 03:39:12;;;;;;;;;;;17.50;99.90;;;;;;5069721;28;19923;-56
2021/07/05 03:41:38;;;;;;;;;;;17.50;99.90;;;;;;5054911;28;19908;-58
2021/07/05 03:44:03;;;;;;;;;;;17.50;99.90;;;;;;5067486;28;19913;-56
2021/07/05 03:46:29;;;;;;;;;;;17.50;99.90;;;;;;5072617;28;19916;-58
2021/07/05 03:48:54;;;;;;;;;;;17.60;99.90;;;;;;5067149;28;19965;-55
2021/07/05 03:51:20;;;;;;;;;;;17.50;99.90;;;;;;5070189;28;19912;-57
2021/07/05 03:53:45;;;;;;;;;;;17.50;99.90;;;;;;5065095;28;19908;-58
2021/07/05 03:56:11;;;;;;;;;;;17.50;99.90;;;;;;5048712;28;20407;-58
2021/07/05 03:58:36;;;;;;;;;;;17.50;99.90;;;;;;5072586;28;19913;-58
2021/07/05 04:01:02;;;;;;;;;;;17.50;99.90;;;;;;5066046;28;19931;-57
2021/07/05 04:03:28;;;;;;;;;;;17.50;99.90;;;;;;5053829;28;19909;-57
2021/07/05 04:05:54;;;;;;;;;;;17.50;99.90;;;;;;5071973;28;19918;-56
2021/07/05 04:08:22;;;;;;;;;;;17.50;99.90;;;;;;5051449;28;19920;-57
2021/07/05 04:10:47;;;;;;;;;;;17.50;99.90;;;;;;5072424;28;19914;-57
2021/07/05 04:13:13;;;;;;;;;;;17.60;99.90;;;;;;5066603;28;19999;-58
2021/07/05 04:15:38;;;;;;;;;;;17.60;99.90;;;;;;5071934;28;19955;-58
2021/07/05 04:18:05;;;;;;;;;;;17.60;99.90;;;;;;5065376;28;19952;-56
2021/07/05 04:20:30;;;;;;;;;;;17.60;99.90;;;;;;5053950;28;19912;-58
2021/07/05 04:22:56;;;;;;;;;;;17.60;99.90;;;;;;5047590;28;19914;-57
2021/07/05 04:25:22;;;;;;;;;;;17.60;99.90;;;;;;5050598;28;19908;-58
2021/07/05 04:27:50;;;;;;;;;;;17.60;99.90;;;;;;5072168;28;20356;-58
2021/07/05 04:30:16;;;;;;;;;;;17.60;99.90;;;;;;5066490;28;19912;-58
2021/07/05 04:32:42;;;;;;;;;;;17.60;99.90;;;;;;5071636;28;19909;-58
2021/07/05 04:35:09;;;;;;;;;;;17.60;99.90;;;;;;5064162;28;20401;-59
2021/07/05 04:37:37;;;;;;;;;;;17.70;99.90;;;;;;5054136;28;20011;-58
2021/07/05 04:40:03;;;;;;;;;;;17.70;99.90;;;;;;5064184;28;19931;-59
2021/07/05 04:42:28;;;;;;;;;;;17.70;99.90;;;;;;5051497;28;19909;-58
2021/07/05 04:44:54;;;;;;;;;;;17.80;99.90;;;;;;5070420;28;20008;-57
2021/07/05 04:47:19;;;;;;;;;;;17.70;99.90;;;;;;5066263;28;19909;-58
2021/07/05 04:49:45;;;;;;;;;;;17.80;99.90;;;;;;5071276;28;19969;-57
2021/07/05 04:52:10;;;;;;;;;;;17.80;99.90;;;;;;5063990;28;20425;-54
2021/07/05 04:54:36;;;;;;;;;;;17.80;99.90;;;;;;5065183;28;19909;-58
2021/07/05 04:57:02;;;;;;;;;;;17.80;99.90;;;;;;5069805;28;19966;-58
2021/07/05 04:59:28;;;;;;;;;;;17.80;99.90;;;;;;5048246;28;19909;-58
2021/07/05 05:01:53;;;;;;;;;;;17.90;99.90;;;;;;5069017;28;19915;-58
2021/07/05 05:04:19;;;;;;;;;;;17.90;99.90;;;;;;5067265;28;19913;-54
2021/07/05 05:06:44;;;;;;;;;;;17.90;99.90;;;;;;5066484;28;19942;-56
2021/07/05 05:09:10;;;;;;;;;;;17.90;99.90;;;;;;5070571;28;20271;-57
2021/07/05 05:11:36;;;;;;;;;;;17.90;99.90;;;;;;5067091;28;19977;-55
2021/07/05 05:14:01;;;;;;;;;;;17.90;99.90;;;;;;5069309;28;20597;-55
2021/07/05 05:16:27;;;;;;;;;;;17.90;99.90;;;;;;5070679;28;20371;-55
2021/07/05 05:18:52;;;;;;;;;;;18.00;99.90;;;;;;5068756;28;19908;-56
2021/07/05 05:21:18;;;;;;;;;;;18.00;99.90;;;;;;5067205;28;19917;-55
2021/07/05 05:23:43;;;;;;;;;;;18.00;99.90;;;;;;5065765;28;19962;-57
2021/07/05 05:26:09;;;;;;;;;;;18.00;99.90;;;;;;5069790;28;19916;-58
2021/07/05 05:28:34;;;;;;;;;;;18.00;99.90;;;;;;5048931;28;19915;-58
2021/07/05 05:31:00;;;;;;;;;;;18.00;99.90;;;;;;5069297;28;19928;-58
2021/07/05 05:33:26;;;;;;;;;;;18.10;99.90;;;;;;5065876;28;19951;-59
2021/07/05 05:35:51;;;;;;;;;;;18.00;99.90;;;;;;5068512;28;19951;-59
2021/07/05 05:38:17;;;;;;;;;;;18.00;99.90;;;;;;5067012;28;19939;-60
2021/07/05 05:40:42;;;;;;;;;;;18.00;99.90;;;;;;5065250;28;19955;-58
2021/07/05 05:43:08;;;;;;;;;;;18.10;99.90;;;;;;5051817;28;19908;-58
2021/07/05 05:45:37;;;;;;;;;;;18.10;99.90;;;;;;5671816;22;20235;-60
2021/07/05 05:48:03;;;;;;;;;;;18.10;99.90;;;;;;5072559;28;20011;-60
2021/07/05 05:50:29;;;;;;;;;;;18.20;99.90;;;;;;5075349;28;20413;-59
2021/07/05 05:52:54;;;;;;;;;;;18.10;99.90;;;;;;5072908;28;19908;-60
2021/07/05 05:55:20;;;;;;;;;;;18.20;99.90;;;;;;5070990;28;19916;-60
2021/07/05 05:57:45;;;;;;;;;;;18.20;99.90;;;;;;5068872;28;20378;-60
2021/07/05 06:00:16;;;;;;;;;;;18.30;99.90;;;;;;5065795;28;19908;-61
2021/07/05 06:02:41;;;;;;;;;;;18.30;99.90;;;;;;5050961;28;20007;-59
2021/07/05 06:05:07;;;;;;;;;;;18.30;99.90;;;;;;5064766;28;19989;-60
2021/07/05 06:07:33;;;;;;;;;;;18.30;99.90;;;;;;5067338;28;19908;-60
2021/07/05 06:09:58;;;;;;;;;;;18.30;99.90;;;;;;5069493;28;19916;-60
2021/07/05 06:12:24;;;;;;;;;;;18.40;99.90;;;;;;5061592;28;19952;-59
2021/07/05 06:14:49;;;;;;;;;;;18.40;99.90;;;;;;5038762;28;19916;-61
2021/07/05 06:17:15;;;;;;;;;;;18.50;99.90;;;;;;5061976;28;19912;-59
2021/07/05 06:19:40;;;;;;;;;;;18.50;99.90;;;;;;5067877;28;19958;-59
2021/07/05 06:22:14;;;;;;;;;;;18.50;99.90;;;;;;5064303;28;19917;-58
2021/07/05 06:24:39;;;;;;;;;;;18.50;99.90;;;;;;5066820;28;19908;-55
2021/07/05 06:27:05;;;;;;;;;;;18.50;99.90;;;;;;5069368;28;19923;-56
2021/07/05 06:29:31;;;;;;;;;;;18.50;99.90;;;;;;5066226;28;19908;-56
2021/07/05 06:31:56;;;;;;;;;;;18.60;99.90;;;;;;5068518;28;20012;-57
2021/07/05 06:34:22;;;;;;;;;;;18.60;99.90;;;;;;5065531;28;19990;-58
2021/07/05 06:36:47;;;;;;;;;;;18.60;99.90;;;;;;5067404;28;19916;-57
2021/07/05 06:39:12;;;;;;;;;;;18.60;99.90;;;;;;5063932;28;19915;-56
2021/07/05 06:41:38;;;;;;;;;;;18.70;99.90;;;;;;5066743;28;19908;-53
2021/07/05 06:44:04;;;;;;;;;;;18.70;99.90;;;;;;5068755;28;20379;-54
2021/07/05 06:46:29;;;;;;;;;;;18.70;99.90;;;;;;5065387;28;19916;-56
2021/07/05 06:48:54;;;;;;;;;;;18.70;99.90;;;;;;5068041;28;20290;-54
2021/07/05 06:51:21;;;;;;;;;;;18.70;99.90;;;;;;5065150;28;20046;-56
2021/07/05 06:53:46;;;;;;;;;;;18.70;99.90;;;;;;5067464;28;20011;-53
2021/07/05 06:56:12;;;;;;;;;;;18.70;99.90;;;;;;5063891;28;20380;-56
2021/07/05 06:58:37;;;;;;;;;;;18.70;99.90;;;;;;5070111;28;19912;-56
2021/07/05 07:01:03;;;;;;;;;;;18.70;99.90;;;;;;5039109;28;19912;-53
2021/07/05 07:03:28;;;;;;;;;;;18.80;99.90;;;;;;5070424;28;20401;-56
2021/07/05 07:05:55;;;;;;;;;;;18.80;99.90;;;;;;5063447;28;19975;-54
2021/07/05 07:08:21;;;;;;;;;;;18.80;99.90;;;;;;5066961;28;19909;-54
2021/07/05 07:10:47;;;;;;;;;;;18.80;99.90;;;;;;5070164;28;19913;-55
2021/07/05 07:13:12;;;;;;;;;;;18.80;99.90;;;;;;5064158;28;19948;-55
2021/07/05 07:15:44;;;;;;;;;;;18.90;99.90;;;;;;5069837;28;19962;-54
2021/07/05 07:18:31;;;;;;;;;;;18.90;99.90;;;;;;5062410;28;20397;-57
2021/07/05 07:20:55;;;;;;;;;;;18.90;99.90;;;;;;5069153;28;19955;-57
2021/07/05 07:23:20;;;;;;;;;;;19.00;99.90;;;;;;5061495;28;20402;-55
2021/07/05 07:25:46;;;;;;;;;;;19.00;99.90;;;;;;5069183;28;19919;-56
2021/07/05 07:28:11;;;;;;;;;;;19.00;99.90;;;;;;5070454;28;19915;-55
2021/07/05 07:30:37;;;;;;;;;;;19.00;99.90;;;;;;5070672;28;20378;-55
2021/07/05 07:33:02;;;;;;;;;;;19.00;99.90;;;;;;5071658;28;19955;-57
2021/07/05 07:35:28;;;;;;;;;;;19.20;99.90;;;;;;5067367;28;19917;-60
2021/07/05 07:37:54;;;;;;;;;;;19.20;99.90;;;;;;5072741;28;19958;-57
2021/07/05 07:40:25;;;;;;;;;;;19.20;99.90;;;;;;5064563;28;20000;-59
2021/07/05 07:42:51;;;;;;;;;;;19.30;99.90;;;;;;5071969;28;19966;-58
2021/07/05 07:45:18;;;;;;;;;;;19.30;99.90;;;;;;5068693;28;19913;-58
2021/07/05 07:47:44;;;;;;;;;;;19.30;99.90;;;;;;5044876;28;20382;-59
2021/07/05 07:50:11;;;;;;;;;;;19.40;99.90;;;;;;5070090;28;19928;-59
2021/07/05 07:52:37;;;;;;;;;;;19.40;99.90;;;;;;5068189;28;19912;-57
2021/07/05 07:55:07;;;;;;;;;;;19.30;99.90;;;;;;5068510;28;19909;-59
2021/07/05 07:57:32;;;;;;;;;;;19.30;99.90;;;;;;5047374;28;19924;-59
2021/07/05 07:59:58;;;;;;;;;;;19.40;99.90;;;;;;5066051;28;19908;-60
2021/07/05 08:02:23;;;;;;;;;;;19.40;99.90;;;;;;5070709;28;19908;-58
2021/07/05 08:04:49;;;;;;;;;;;19.40;99.90;;;;;;5066597;28;19913;-58
2021/07/05 08:07:14;;;;;;;;;;;19.50;99.90;;;;;;5069417;28;20385;-57
2021/07/05 08:09:40;;;;;;;;;;;19.50;99.90;;;;;;5071818;28;19908;-59
2021/07/05 08:12:07;;;;;;;;;;;19.60;99.90;;;;;;5054627;28;19912;-59
2021/07/05 08:14:33;;;;;;;;;;;19.50;99.90;;;;;;5070406;28;19916;-59
2021/07/05 08:16:58;;;;;;;;;;;19.60;99.90;;;;;;5067228;28;19912;-61
2021/07/05 08:19:24;;;;;;;;;;;19.80;99.90;;;;;;5047241;28;19931;-60
2021/07/05 08:21:49;;;;;;;;;;;20.10;99.90;;;;;;5063019;28;19944;-60
2021/07/05 08:24:15;;;;;;;;;;;20.40;99.90;;;;;;5045915;28;19962;-59
2021/07/05 08:26:40;;;;;;;;;;;20.50;99.90;;;;;;5071942;28;19999;-60
2021/07/05 08:29:06;;;;;;;;;;;20.50;99.90;;;;;;5068160;28;20378;-59
2021/07/05 08:31:32;;;;;;;;;;;20.60;99.90;;;;;;5070933;28;19912;-61
2021/07/05 08:33:59;;;;;;;;;;;20.70;99.90;;;;;;5067305;28;19977;-61
2021/07/05 08:36:24;;;;;;;;;;;20.90;99.90;;;;;;5069603;28;20496;-61
2021/07/05 08:38:50;;;;;;;;;;;21.00;99.90;;;;;;5065469;28;20079;-59
2021/07/05 08:41:16;;;;;;;;;;;21.10;99.90;;;;;;5068775;28;20552;-59
2021/07/05 08:43:42;;;;;;;;;;;21.20;99.90;;;;;;5070761;28;20418;-59
2021/07/05 08:46:08;;;;;;;;;;;21.10;99.90;;;;;;5067010;28;20340;-60
2021/07/05 08:48:35;;;;;;;;;;;21.10;99.90;;;;;;5070374;28;19991;-59
2021/07/05 08:51:02;;;;;;;;;;;21.20;99.90;;;;;;5066206;28;19916;-59
2021/07/05 08:53:27;;;;;;;;;;;21.10;99.90;;;;;;5069277;28;19975;-59
2021/07/05 08:55:53;;;;;;;;;;;21.00;99.90;;;;;;5066881;28;20386;-61
2021/07/05 08:58:19;;;;;;;;;;;21.10;99.90;;;;;;5063138;28;19973;-58
2021/07/05 09:00:44;;;;;;;;;;;21.20;99.90;;;;;;5066721;28;20100;-60
2021/07/05 09:03:10;;;;;;;;;;;21.30;99.90;;;;;;5069323;28;19916;-60
2021/07/05 09:05:36;;;;;;;;;;;21.30;99.90;;;;;;5065633;28;19908;-58
2021/07/05 09:08:02;;;;;;;;;;;21.20;99.90;;;;;;5067294;28;20345;-59
2021/07/05 09:10:28;;;;;;;;;;;21.10;99.90;;;;;;5071376;28;19909;-59
2021/07/05 09:13:17;;;;;;;;;;;21.10;99.90;;;;;;5066694;28;20359;-59
2021/07/05 09:15:47;;;;;;;;;;;21.10;99.90;;;;;;5066709;28;19952;-59
2021/07/05 09:18:22;;;;;;;;;;;21.00;99.90;;;;;;5063752;28;20418;-56
2021/07/05 09:20:48;;;;;;;;;;;21.00;99.90;;;;;;5071214;28;20290;-59
2021/07/05 09:23:14;;;;;;;;;;;21.10;99.90;;;;;;5061855;28;19908;-58
2021/07/05 09:25:44;;;;;;;;;;;21.00;99.90;;;;;;5070141;28;19954;-60
2021/07/05 09:28:10;;;;;;;;;;;21.00;99.90;;;;;;5068384;28;19967;-61
2021/07/05 09:30:43;;;;;;;;;;;21.10;99.90;;;;;;5068205;28;19948;-59
2021/07/05 09:33:14;;;;;;;;;;;21.20;99.90;;;;;;5068556;28;19908;-60
2021/07/05 09:35:40;;;;;;;;;;;21.30;99.90;;;;;;5044697;28;19916;-58
2021/07/05 09:38:06;;;;;;;;;;;21.50;99.90;;;;;;5067509;28;19912;-59
2021/07/05 09:40:31;;;;;;;;;;;21.80;99.90;;;;;;5063921;28;19909;-59
2021/07/05 09:42:57;;;;;;;;;;;22.10;99.90;;;;;;5069792;28;19944;-56
2021/07/05 09:45:22;;;;;;;;;;;22.30;99.90;;;;;;5065949;28;19916;-57
2021/07/05 09:48:07;;;;;;;;;;;22.50;99.90;;;;;;5069107;28;19919;-57
2021/07/05 09:50:33;;;;;;;;;;;22.50;99.90;;;;;;5059180;28;20336;-58
2021/07/05 09:52:59;;;;;;;;;;;22.40;99.90;;;;;;5067893;28;19961;-59
2021/07/05 09:55:32;;;;;;;;;;;22.40;99.90;;;;;;5066290;28;19999;-60
2021/07/05 09:57:57;;;;;;;;;;;22.70;99.90;;;;;;5068771;28;19939;-59
2021/07/05 10:00:25;;;;;;;;;;;22.90;99.90;;;;;;5065717;28;19908;-61
2021/07/05 10:03:02;;;;;;;;;;;22.80;99.90;;;;;;5067930;28;19919;-58
2021/07/05 10:05:31;;;;;;;;;;;22.80;99.90;;;;;;5064267;28;19919;-60
2021/07/05 10:07:58;;;;;;;;;;;22.80;99.90;;;;;;5066014;28;19913;-58
2021/07/05 10:10:24;;;;;;;;;;;23.00;99.90;;;;;;5056914;28;19930;-58
2021/07/05 10:12:51;;;;;;;;;;;23.20;99.90;;;;;;5066218;28;20007;-59
2021/07/05 10:15:16;;;;;;;;;;;23.20;99.90;;;;;;5068572;28;19909;-57
2021/07/05 10:17:45;;;;;;;;;;;23.10;99.90;;;;;;5065325;28;20466;-60
2021/07/05 10:20:14;;;;;;;;;;;23.00;99.90;;;;;;5067797;28;19915;-53
2021/07/05 10:22:44;;;;;;;;;;;22.90;99.90;;;;;;5064679;28;20311;-57
2021/07/05 10:25:10;;;;;;;;;;;22.90;99.90;;;;;;5065706;28;19923;-56
2021/07/05 10:27:36;;;;;;;;;;;22.70;99.90;;;;;;5070415;28;19908;-59
2021/07/05 10:30:04;;;;;;;;;;;22.90;99.90;;;;;;5064596;28;19924;-58
2021/07/05 10:32:30;;;;;;;;;;;23.10;99.90;;;;;;5043086;28;20285;-59
2021/07/05 10:34:55;;;;;;;;;;;23.30;99.90;;;;;;5066404;28;19909;-60
2021/07/05 10:37:32;;;;;;;;;;;23.40;99.90;;;;;;5068528;28;19912;-59
2021/07/05 10:39:57;;;;;;;;;;;23.40;99.90;;;;;;5037987;28;19962;-59
2021/07/05 10:42:27;;;;;;;;;;;23.40;99.90;;;;;;5069149;28;19943;-57
2021/07/05 10:44:53;;;;;;;;;;;23.40;99.90;;;;;;5069323;28;19991;-58
2021/07/05 10:47:37;;;;;;;;;;;23.20;99.90;;;;;;5064729;28;20016;-60
2021/07/05 10:50:03;;;;;;;;;;;23.20;99.90;;;;;;5068125;28;19995;-58
2021/07/05 10:52:45;;;;;;;;;;;23.30;99.90;;;;;;5064399;28;20430;-59
2021/07/05 10:55:31;;;;;;;;;;;23.20;99.90;;;;;;5065812;28;20007;-59
2021/07/05 10:57:56;;;;;;;;;;;23.00;99.90;;;;;;5042848;28;19924;-57
2021/07/05 11:00:22;;;;;;;;;;;23.00;99.90;;;;;;5070244;28;19914;-62
2021/07/05 11:02:53;;;;;;;;;;;23.20;99.90;;;;;;5071347;28;19908;-60
2021/07/05 11:05:43;;;;;;;;;;;23.20;99.90;;;;;;5067614;28;19944;-58
2021/07/05 11:08:17;;;;;;;;;;;23.40;99.90;;;;;;5056586;28;19914;-59
2021/07/05 11:10:44;;;;;;;;;;;23.40;99.90;;;;;;5073645;28;20317;-60
2021/07/05 11:13:09;;;;;;;;;;;23.50;99.90;;;;;;5067767;28;20347;-61
2021/07/05 11:15:49;;;;;;;;;;;23.60;99.90;;;;;;5073281;28;19959;-59
2021/07/05 11:18:33;;;;;;;;;;;23.50;99.90;;;;;;5065952;28;19919;-60
2021/07/05 11:20:58;;;;;;;;;;;23.40;99.90;;;;;;5072303;28;19962;-60
2021/07/05 11:23:23;;;;;;;;;;;23.40;99.90;;;;;;5065377;28;20008;-58
2021/07/05 11:26:09;;;;;;;;;;;23.40;99.90;;;;;;5072049;28;19909;-59
2021/07/05 11:28:34;;;;;;;;;;;23.40;99.90;;;;;;5069306;28;20004;-55
2021/07/05 11:31:17;;;;;;;;;;;23.40;99.90;;;;;;5071980;28;20437;-59
2021/07/05 11:33:42;;;;;;;;;;;23.40;99.90;;;;;;5068333;28;20390;-57
2021/07/05 11:36:18;;;;;;;;;;;23.50;99.90;;;;;;5070393;28;19955;-57
2021/07/05 11:38:43;;;;;;;;;;;23.60;99.90;;;;;;5046756;28;19912;-61
2021/07/05 11:41:12;;;;;;;;;;;23.70;99.90;;;;;;5069788;28;20293;-60
2021/07/05 11:43:47;;;;;;;;;;;23.90;99.90;;;;;;5071419;28;20159;-61
2021/07/05 11:46:36;;;;;;;;;;;23.90;99.90;;;;;;5079925;22;20426;-55
2021/07/05 11:49:06;;;;;;;;;;;24.00;99.90;;;;;;5026523;28;19909;-51
2021/07/05 11:51:32;;;;;;;;;;;24.00;99.90;;;;;;5031116;28;19909;-53
2021/07/05 11:53:58;;;;;;;;;;;24.10;99.90;;;;;;5034768;28;20630;-53
2021/07/05 11:56:24;;;;;;;;;;;24.10;99.90;;;;;;5032285;28;19995;-50
2021/07/05 11:58:51;;;;;;;;;;;24.30;99.90;;;;;;5032747;28;19913;-56
2021/07/05 12:01:16;;;;;;;;;;;24.30;99.90;;;;;;5025882;28;19916;-50
2021/07/05 12:03:55;;;;;;;;;;;24.20;99.90;;;;;;5032526;28;19909;-49
2021/07/05 12:06:20;;;;;;;;;;;24.10;99.90;;;;;;5019104;28;20355;-50
2021/07/05 12:08:56;;;;;;;;;;;24.10;99.90;;;;;;5031826;28;19948;-49
2021/07/05 12:11:27;;;;;;;;;;;24.10;99.90;;;;;;5017375;28;19932;-50
2021/07/05 12:14:06;;;;;;;;;;;24.10;99.90;;;;;;5029749;28;19909;-53
2021/07/05 12:16:32;;;;;;;;;;;24.10;99.90;;;;;;5027075;28;20356;-51
2021/07/05 12:18:59;;;;;;;;;;;24.10;99.90;;;;;;5029976;28;19974;-51
2021/07/05 12:21:31;;;;;;;;;;;24.30;99.90;;;;;;5027787;28;19910;-49
2021/07/05 12:24:06;;;;;;;;;;;24.20;99.90;;;;;;5024063;28;19917;-50
2021/07/05 12:26:39;;;;;;;;;;;24.10;99.90;;;;;;5031177;28;19909;-53
2021/07/05 12:29:32;;;;;;;;;;;24.00;99.90;;;;;;5024210;28;19929;-51
2021/07/05 12:31:57;;;;;;;;;;;23.90;99.90;;;;;;5030010;28;19910;-48
2021/07/05 12:34:35;;;;;;;;;;;23.80;99.90;;;;;;5027030;28;19989;-53
2021/07/05 12:37:00;;;;;;;;;;;23.80;99.90;;;;;;5028949;28;20375;-49
2021/07/05 12:39:26;;;;;;;;;;;23.80;99.90;;;;;;5025949;28;19916;-54
2021/07/05 12:41:51;;;;;;;;;;;23.90;99.90;;;;;;5028246;28;19936;-48
2021/07/05 12:44:17;;;;;;;;;;;23.90;99.90;;;;;;5030943;28;19916;-53
2021/07/05 12:46:43;;;;;;;;;;;23.90;99.90;;;;;;5027160;28;19918;-50
2021/07/05 12:49:09;;;;;;;;;;;23.80;99.90;;;;;;5031388;28;19913;-52
2021/07/05 12:51:35;;;;;;;;;;;23.60;99.90;;;;;;5022060;28;20273;-50
2021/07/05 12:54:01;;;;;;;;;;;23.50;99.90;;;;;;5027534;28;19909;-51
2021/07/05 12:56:30;;;;;;;;;;;23.40;99.90;;;;;;5027340;28;20299;-53
2021/07/05 12:58:57;;;;;;;;;;;23.20;99.90;;;;;;5030941;28;19956;-52
2021/07/05 13:01:25;;;;;;;;;;;23.30;99.90;;;;;;5025527;28;19920;-53
2021/07/05 13:04:02;;;;;;;;;;;23.20;99.90;;;;;;5031420;28;19912;-59
2021/07/05 13:06:28;;;;;;;;;;;22.80;99.90;;;;;;5023937;28;19913;-47
2021/07/05 13:09:02;;;;;;;;;;;22.30;99.90;;;;;;5029487;28;19955;-46
2021/07/05 13:11:36;;;;;;;;;;;21.80;99.90;;;;;;5027268;28;19932;-48
2021/07/05 13:14:06;;;;;;;;;;;21.20;99.90;;;;;;5028434;28;19913;-52
2021/07/05 13:16:32;;;;;;;;;;;21.00;99.90;;;;;;5025999;28;19910;-47
2021/07/05 13:19:06;;;;;;;;;;;20.80;99.90;;;;;;5028624;28;19917;-46
2021/07/05 13:21:34;;;;;;;;;;;20.80;99.90;;;;;;5025414;28;19917;-48
2021/07/05 13:24:15;;;;;;;;;;;20.70;99.90;;;;;;5027636;28;19913;-49
2021/07/05 13:26:41;;;;;;;;;;;20.60;99.90;;;;;;5029898;28;19917;-46
2021/07/05 13:29:14;;;;;;;;;;;20.40;99.90;;;;;;5027033;28;19963;-45
2021/07/05 13:31:40;;;;;;;;;;;20.30;99.90;;;;;;5021586;28;20319;-49
2021/07/05 13:34:25;;;;;;;;;;;20.20;99.90;;;;;;5025827;28;20394;-48
2021/07/05 13:36:54;;;;;;;;;;;20.10;99.90;;;;;;5027752;28;19917;-46
2021/07/05 13:39:20;;;;;;;;;;;19.90;99.90;;;;;;5025117;28;19909;-47
2021/07/05 13:41:45;;;;;;;;;;;19.90;99.90;;;;;;5027370;28;19955;-48
2021/07/05 13:44:11;;;;;;;;;;;19.90;99.90;;;;;;5028338;28;19909;-46
2021/07/05 13:46:36;;;;;;;;;;;20.00;99.90;;;;;;5026090;28;20007;-46
2021/07/05 13:49:12;;;;;;;;;;;20.00;99.90;;;;;;5028426;28;20376;-48
2021/07/05 13:51:37;;;;;;;;;;;19.90;99.90;;;;;;5025700;28;19905;-46
2021/07/05 13:54:02;;;;;;;;;;;19.70;99.90;;;;;;5026067;28;19909;-49
2021/07/05 13:56:31;;;;;;;;;;;19.70;99.90;;;;;;5026712;28;19909;-50
2021/07/05 13:58:58;;;;;;;;;;;19.70;99.90;;;;;;5029642;28;20035;-49
2021/07/05 14:01:25;;;;;;;;;;;19.70;99.90;;;;;;5024231;28;19964;-45
2021/07/05 14:03:51;;;;;;;;;;;19.70;99.90;;;;;;5030102;28;20453;-45
2021/07/05 14:06:18;;;;;;;;;;;19.60;99.90;;;;;;5021443;28;19910;-52
2021/07/05 14:08:46;;;;;;;;;;;19.60;99.90;;;;;;5030058;28;19913;-45
2021/07/05 14:11:12;;;;;;;;;;;19.50;99.90;;;;;;5027325;28;19956;-45
2021/07/05 14:13:39;;;;;;;;;;;19.40;99.90;;;;;;5027640;28;19960;-45
2021/07/05 14:16:06;;;;;;;;;;;19.50;99.90;;;;;;5028202;28;20002;-47
2021/07/05 14:18:32;;;;;;;;;;;19.30;99.90;;;;;;5025378;28;19959;-46